Time;durP1;ratioP1;P1;durP2;ratioP2;P2;SDS_P1;SDS_P2;PMS_P1;PMS_P2;Temp;Humidity;BMP_temperature;BMP_pressure;BME280_temperature;BME280_humidity;BME280_pressure;Samples;Min_cycle;Max_cycle;Signal;HPM_P1;HPM_P2
2023/08/25 00:00:47;;;;;;;4.55;3.58;;;;;;;;;;6311651;28;20295;-69
2023/08/25 00:03:52;;;;;;;4.22;3.80;;;;;;;;;;6309437;28;20306;-70
2023/08/25 00:06:56;;;;;;;5.53;3.95;;;;;;;;;;6308836;28;20299;-70
2023/08/25 00:09:59;;;;;;;4.32;3.67;;;;;;;;;;6309615;28;20291;-70
2023/08/25 00:13:03;;;;;;;5.05;3.92;;;;;;;;;;6309378;28;20570;-69
2023/08/25 00:16:08;;;;;;;6.95;3.70;;;;;;;;;;6310096;28;20359;-70
2023/08/25 00:19:17;;;;;;;7.95;3.50;;;;;;;;;;6309556;28;20298;-69
2023/08/25 00:22:21;;;;;;;20.20;4.93;;;;;;;;;;6308596;28;20289;-71
2023/08/25 00:25:25;;;;;;;14.60;4.22;;;;;;;;;;6309777;28;20294;-71
2023/08/25 00:28:29;;;;;;;10.73;4.05;;;;;;;;;;6309297;28;20289;-71
2023/08/25 00:31:33;;;;;;;8.90;3.60;;;;;;;;;;6309437;28;20314;-71
2023/08/25 00:34:38;;;;;;;11.73;3.60;;;;;;;;;;6309238;28;20452;-70
2023/08/25 00:37:43;;;;;;;5.93;3.50;;;;;;;;;;6308677;28;20471;-71
2023/08/25 00:40:47;;;;;;;3.88;3.47;;;;;;;;;;6307299;28;20304;-70
2023/08/25 00:43:52;;;;;;;7.10;3.92;;;;;;;;;;6308813;28;20387;-71
2023/08/25 00:46:56;;;;;;;17.50;4.18;;;;;;;;;;6307535;28;20289;-71
2023/08/25 00:50:03;;;;;;;15.82;4.15;;;;;;;;;;6281927;28;20298;-71
2023/08/25 00:53:07;;;;;;;17.40;3.75;;;;;;;;;;6308824;28;20298;-71
2023/08/25 00:56:12;;;;;;;6.35;3.20;;;;;;;;;;6307701;28;20269;-71
2023/08/25 00:59:15;;;;;;;18.88;3.75;;;;;;;;;;6306389;28;20286;-70
2023/08/25 01:02:19;;;;;;;12.45;4.22;;;;;;;;;;6308368;28;22333;-71
2023/08/25 01:05:25;;;;;;;17.63;3.90;;;;;;;;;;6291198;28;20290;-69
2023/08/25 01:08:30;;;;;;;13.05;3.67;;;;;;;;;;6307318;28;20439;-74
2023/08/25 01:11:38;;;;;;;6.72;3.50;;;;;;;;;;6308945;28;20291;-69
2023/08/25 01:14:50;;;;;;;10.98;3.65;;;;;;;;;;6308406;28;20294;-70
2023/08/25 01:17:59;;;;;;;7.72;3.13;;;;;;;;;;6309621;28;20294;-70
2023/08/25 01:21:06;;;;;;;10.50;3.33;;;;;;;;;;6313742;28;20587;-70
2023/08/25 01:24:14;;;;;;;7.82;3.20;;;;;;;;;;6313080;28;20309;-70
2023/08/25 01:27:19;;;;;;;9.88;3.50;;;;;;;;;;6311905;28;20345;-69
2023/08/25 01:30:23;;;;;;;5.13;3.50;;;;;;;;;;6313112;28;20298;-69
2023/08/25 01:33:28;;;;;;;13.30;3.40;;;;;;;;;;6323455;28;20293;-69
2023/08/25 01:36:34;;;;;;;14.75;3.55;;;;;;;;;;6336660;28;20305;-70
2023/08/25 01:39:41;;;;;;;17.85;3.72;;;;;;;;;;6336140;28;20294;-71
2023/08/25 01:42:47;;;;;;;14.32;4.00;;;;;;;;;;6321644;28;20343;-70
2023/08/25 01:45:52;;;;;;;15.02;4.03;;;;;;;;;;6326838;28;20294;-70
2023/08/25 01:48:58;;;;;;;10.35;4.30;;;;;;;;;;6335136;28;20305;-70
2023/08/25 01:52:02;;;;;;;13.95;3.75;;;;;;;;;;6338056;28;20294;-72
2023/08/25 01:55:09;;;;;;;10.95;3.50;;;;;;;;;;6336966;28;20293;-71
2023/08/25 01:58:15;;;;;;;7.05;3.72;;;;;;;;;;6328070;28;20291;-71
2023/08/25 02:01:19;;;;;;;8.65;3.80;;;;;;;;;;6312165;28;20586;-74
2023/08/25 02:04:23;;;;;;;10.95;4.18;;;;;;;;;;6309412;28;20314;-70
2023/08/25 02:07:27;;;;;;;16.73;4.30;;;;;;;;;;6310029;28;20602;-71
2023/08/25 02:10:35;;;;;;;12.50;4.03;;;;;;;;;;6312918;28;20370;-71
2023/08/25 02:13:41;;;;;;;10.75;3.72;;;;;;;;;;6312322;28;20302;-71
2023/08/25 02:16:45;;;;;;;7.25;3.45;;;;;;;;;;6312216;28;20306;-71
2023/08/25 02:19:49;;;;;;;12.20;3.50;;;;;;;;;;6293191;28;20306;-71
2023/08/25 02:22:52;;;;;;;8.57;4.00;;;;;;;;;;6311620;28;20290;-71
2023/08/25 02:25:56;;;;;;;11.48;4.18;;;;;;;;;;6293953;28;20330;-70
2023/08/25 02:29:01;;;;;;;10.13;4.20;;;;;;;;;;6316071;28;20392;-71
2023/08/25 02:32:06;;;;;;;13.95;3.70;;;;;;;;;;6318563;28;20442;-71
2023/08/25 02:35:10;;;;;;;7.03;3.60;;;;;;;;;;6317999;28;20483;-70
2023/08/25 02:38:14;;;;;;;6.55;4.20;;;;;;;;;;6336629;28;20294;-70
2023/08/25 02:41:17;;;;;;;4.43;3.67;;;;;;;;;;6318098;28;20281;-70
2023/08/25 02:44:22;;;;;;;5.72;3.60;;;;;;;;;;6318232;28;20285;-70
2023/08/25 02:47:26;;;;;;;6.10;3.60;;;;;;;;;;6317729;28;20365;-71
2023/08/25 02:50:30;;;;;;;13.32;3.80;;;;;;;;;;6336820;28;20297;-71
2023/08/25 02:53:34;;;;;;;10.57;4.07;;;;;;;;;;6336143;28;20290;-71
2023/08/25 02:56:38;;;;;;;4.70;3.50;;;;;;;;;;6319814;28;20294;-71
2023/08/25 02:59:43;;;;;;;9.25;3.95;;;;;;;;;;6335791;28;20329;-70
2023/08/25 03:02:47;;;;;;;7.57;4.32;;;;;;;;;;6309633;28;20299;-71
2023/08/25 03:05:53;;;;;;;10.32;3.55;;;;;;;;;;6319598;28;20293;-70
2023/08/25 03:08:57;;;;;;;7.78;3.53;;;;;;;;;;6333572;28;20289;-70
2023/08/25 03:12:01;;;;;;;8.15;3.40;;;;;;;;;;6317668;28;20341;-70
2023/08/25 03:15:08;;;;;;;9.70;3.63;;;;;;;;;;6326217;28;20294;-69
2023/08/25 03:18:12;;;;;;;10.57;3.40;;;;;;;;;;6308827;28;20298;-70
2023/08/25 03:21:15;;;;;;;6.60;3.85;;;;;;;;;;6296775;28;20501;-70
2023/08/25 03:24:19;;;;;;;9.75;3.50;;;;;;;;;;6302780;28;20289;-70
2023/08/25 03:27:23;;;;;;;8.13;4.05;;;;;;;;;;6335472;28;20491;-71
2023/08/25 03:30:29;;;;;;;4.32;3.90;;;;;;;;;;6298896;28;20294;-70
2023/08/25 03:33:32;;;;;;;5.32;3.60;;;;;;;;;;6304204;28;20290;-71
2023/08/25 03:36:36;;;;;;;9.02;3.47;;;;;;;;;;6341090;28;20288;-71
2023/08/25 03:39:40;;;;;;;8.68;3.85;;;;;;;;;;6333089;28;20301;-71
2023/08/25 03:42:44;;;;;;;3.53;3.30;;;;;;;;;;6335917;28;20285;-71
2023/08/25 03:45:49;;;;;;;8.18;3.40;;;;;;;;;;6333100;28;20298;-70
2023/08/25 03:48:53;;;;;;;6.25;3.58;;;;;;;;;;6333065;28;20286;-72
2023/08/25 03:51:58;;;;;;;6.25;3.30;;;;;;;;;;6335155;28;20285;-70
2023/08/25 03:55:02;;;;;;;5.63;3.97;;;;;;;;;;6333013;28;20289;-70
2023/08/25 03:58:06;;;;;;;7.78;3.65;;;;;;;;;;6333921;28;20297;-71
2023/08/25 04:01:11;;;;;;;9.93;4.25;;;;;;;;;;6333114;28;20334;-71
2023/08/25 04:04:15;;;;;;;4.18;3.40;;;;;;;;;;6327946;28;20294;-70
2023/08/25 04:07:19;;;;;;;4.32;3.60;;;;;;;;;;6335136;28;20285;-70
2023/08/25 04:10:23;;;;;;;9.27;3.42;;;;;;;;;;6332089;28;20334;-70
2023/08/25 04:13:27;;;;;;;4.53;3.45;;;;;;;;;;6330611;28;20309;-70
2023/08/25 04:16:32;;;;;;;6.72;3.85;;;;;;;;;;6334464;28;20293;-70
2023/08/25 04:19:37;;;;;;;3.78;3.53;;;;;;;;;;6315969;28;20309;-69
2023/08/25 04:22:42;;;;;;;5.03;3.70;;;;;;;;;;6335403;28;20293;-69
2023/08/25 04:25:46;;;;;;;5.60;3.97;;;;;;;;;;6333750;28;20385;-69
2023/08/25 04:28:50;;;;;;;8.30;4.10;;;;;;;;;;6316378;28;20297;-73
2023/08/25 04:31:55;;;;;;;3.92;3.63;;;;;;;;;;6316149;28;20290;-70
2023/08/25 04:35:10;;;;;;;5.60;4.07;;;;;;;;;;6322059;28;20294;-71
2023/08/25 04:38:14;;;;;;;3.75;3.45;;;;;;;;;;6333182;28;20266;-70
2023/08/25 04:41:19;;;;;;;10.00;3.92;;;;;;;;;;6331980;28;20294;-71
2023/08/25 04:44:23;;;;;;;9.20;3.72;;;;;;;;;;6332533;28;20285;-70
2023/08/25 04:47:30;;;;;;;12.80;4.28;;;;;;;;;;6332878;28;20297;-70
2023/08/25 04:50:34;;;;;;;13.43;4.53;;;;;;;;;;6332277;28;20289;-74
2023/08/25 04:53:38;;;;;;;14.30;4.38;;;;;;;;;;6336457;28;20292;-71
2023/08/25 04:56:43;;;;;;;9.85;4.07;;;;;;;;;;6337542;28;20296;-70
2023/08/25 04:59:47;;;;;;;13.68;4.75;;;;;;;;;;6336851;28;20302;-69
2023/08/25 05:02:54;;;;;;;6.78;3.80;;;;;;;;;;6302095;28;20299;-71
2023/08/25 05:05:58;;;;;;;12.65;4.20;;;;;;;;;;6295050;28;20299;-69
2023/08/25 05:09:07;;;;;;;12.73;4.68;;;;;;;;;;6304280;28;20285;-68
2023/08/25 05:12:11;;;;;;;5.15;3.97;;;;;;;;;;6345588;28;20293;-70
2023/08/25 05:15:15;;;;;;;13.85;3.88;;;;;;;;;;6320076;28;20289;-68
2023/08/25 05:18:21;;;;;;;6.82;3.83;;;;;;;;;;6320327;28;20301;-68
2023/08/25 05:21:25;;;;;;;11.05;4.20;;;;;;;;;;6318806;28;20382;-69
2023/08/25 05:24:28;;;;;;;12.45;4.20;;;;;;;;;;6319416;28;20293;-69
2023/08/25 05:27:33;;;;;;;10.45;3.92;;;;;;;;;;6320009;28;20294;-70
2023/08/25 05:30:38;;;;;;;11.52;3.67;;;;;;;;;;6319313;28;20554;-70
2023/08/25 05:33:43;;;;;;;3.75;3.40;;;;;;;;;;6319493;28;20281;-69
2023/08/25 05:37:05;;;;;;;9.57;3.60;;;;;;;;;;6319557;28;20289;-70
2023/08/25 05:40:12;;;;;;;4.03;3.67;;;;;;;;;;6319366;28;20297;-71
2023/08/25 05:43:18;;;;;;;5.13;3.40;;;;;;;;;;6319775;28;20290;-70
2023/08/25 05:46:23;;;;;;;5.90;3.25;;;;;;;;;;6321088;28;20293;-70
2023/08/25 05:49:28;;;;;;;4.15;3.55;;;;;;;;;;6319243;28;20294;-71
2023/08/25 05:52:32;;;;;;;6.35;3.70;;;;;;;;;;6320051;28;20305;-70
2023/08/25 05:55:36;;;;;;;8.02;3.28;;;;;;;;;;6337464;28;20294;-71
2023/08/25 05:58:42;;;;;;;3.60;3.30;;;;;;;;;;6337796;28;20368;-69
2023/08/25 06:01:45;;;;;;;3.42;3.20;;;;;;;;;;6338117;28;20591;-70
2023/08/25 06:04:51;;;;;;;4.10;3.60;;;;;;;;;;6336952;28;20455;-70
2023/08/25 06:07:55;;;;;;;5.97;2.90;;;;;;;;;;6337556;28;20297;-69
2023/08/25 06:10:58;;;;;;;6.15;3.47;;;;;;;;;;6338445;28;20349;-71
2023/08/25 06:14:03;;;;;;;5.65;3.42;;;;;;;;;;6361230;28;20581;-71
2023/08/25 06:17:07;;;;;;;3.53;3.28;;;;;;;;;;6362567;28;20237;-71
2023/08/25 06:20:13;;;;;;;6.25;3.17;;;;;;;;;;6362316;28;20494;-70
2023/08/25 06:23:16;;;;;;;3.20;3.00;;;;;;;;;;6362485;28;20234;-69
2023/08/25 06:26:20;;;;;;;3.15;2.95;;;;;;;;;;6362245;28;20342;-69
2023/08/25 06:29:24;;;;;;;3.70;3.20;;;;;;;;;;6362190;28;20288;-69
2023/08/25 06:32:28;;;;;;;6.18;3.10;;;;;;;;;;6362297;28;20304;-69
2023/08/25 06:35:33;;;;;;;6.85;3.00;;;;;;;;;;6362045;28;20292;-70
2023/08/25 06:38:37;;;;;;;3.28;2.83;;;;;;;;;;6361470;28;20447;-70
2023/08/25 06:41:57;;;;;;;3.70;3.40;;;;;;;;;;6361880;28;20417;-70
2023/08/25 06:45:01;;;;;;;6.68;3.20;;;;;;;;;;6343501;28;20483;-70
2023/08/25 06:48:05;;;;;;;6.18;3.10;;;;;;;;;;6362720;28;20284;-70
2023/08/25 06:51:11;;;;;;;4.68;3.00;;;;;;;;;;6361360;28;20288;-70
2023/08/25 06:54:15;;;;;;;4.65;2.72;;;;;;;;;;6361119;28;20289;-70
2023/08/25 06:57:19;;;;;;;4.10;3.53;;;;;;;;;;6361705;28;20289;-70
2023/08/25 07:00:24;;;;;;;6.38;3.40;;;;;;;;;;6361285;28;20285;-70
2023/08/25 07:03:27;;;;;;;10.18;3.38;;;;;;;;;;6360660;28;20304;-70
2023/08/25 07:06:33;;;;;;;7.55;3.85;;;;;;;;;;6343171;28;20289;-70
2023/08/25 07:09:37;;;;;;;7.95;3.47;;;;;;;;;;6360936;28;20301;-70
2023/08/25 07:12:41;;;;;;;5.60;3.20;;;;;;;;;;6355773;28;20304;-70
2023/08/25 07:15:44;;;;;;;4.03;2.80;;;;;;;;;;6360492;28;20403;-70
2023/08/25 07:18:48;;;;;;;4.78;3.10;;;;;;;;;;6360929;28;20439;-69
2023/08/25 07:21:54;;;;;;;8.60;2.70;;;;;;;;;;6361055;28;20297;-69
2023/08/25 07:24:58;;;;;;;3.00;2.90;;;;;;;;;;6360977;28;20289;-70
2023/08/25 07:28:02;;;;;;;2.55;2.45;;;;;;;;;;6361026;28;20289;-70
2023/08/25 07:31:05;;;;;;;4.78;2.65;;;;;;;;;;6360509;28;20312;-70
2023/08/25 07:34:09;;;;;;;3.17;2.90;;;;;;;;;;6360678;28;20537;-68
2023/08/25 07:37:15;;;;;;;2.92;2.70;;;;;;;;;;6361371;28;20296;-70
2023/08/25 07:40:19;;;;;;;164.95;8.35;;;;;;;;;;6360385;28;20296;-70
2023/08/25 07:43:23;;;;;;;3.40;2.95;;;;;;;;;;6359881;28;20589;-69
2023/08/25 07:46:27;;;;;;;3.00;2.80;;;;;;;;;;6360886;28;20298;-69
2023/08/25 07:49:31;;;;;;;4.70;3.20;;;;;;;;;;6360184;28;20301;-69
2023/08/25 07:52:36;;;;;;;12.05;3.95;;;;;;;;;;6360552;28;20300;-70
2023/08/25 07:55:41;;;;;;;7.70;3.60;;;;;;;;;;6360184;28;20293;-68
2023/08/25 07:58:45;;;;;;;7.20;3.22;;;;;;;;;;6341055;28;20288;-69
2023/08/25 08:01:50;;;;;;;7.82;3.42;;;;;;;;;;6341522;28;20300;-69
2023/08/25 08:04:53;;;;;;;8.07;3.33;;;;;;;;;;6359667;28;20481;-71
2023/08/25 08:07:59;;;;;;;4.82;3.50;;;;;;;;;;6360286;28;20293;-69
2023/08/25 08:11:03;;;;;;;3.80;3.50;;;;;;;;;;6351919;28;20479;-69
2023/08/25 08:14:07;;;;;;;10.15;3.67;;;;;;;;;;6359228;28;20296;-69
2023/08/25 08:17:11;;;;;;;5.63;3.65;;;;;;;;;;6360008;28;20253;-70
2023/08/25 08:20:15;;;;;;;6.13;3.13;;;;;;;;;;6359452;28;20297;-71
2023/08/25 08:23:20;;;;;;;3.63;3.20;;;;;;;;;;6359920;28;20265;-70
2023/08/25 08:26:24;;;;;;;9.63;3.65;;;;;;;;;;6359936;28;20288;-69
2023/08/25 08:29:29;;;;;;;6.97;3.03;;;;;;;;;;6364725;28;20297;-70
2023/08/25 08:32:35;;;;;;;3.13;2.92;;;;;;;;;;6365250;28;20292;-70
2023/08/25 08:35:40;;;;;;;6.18;3.03;;;;;;;;;;6364759;28;20289;-70
2023/08/25 08:38:45;;;;;;;3.50;3.20;;;;;;;;;;6365549;28;20297;-70
2023/08/25 08:41:50;;;;;;;18.75;4.40;;;;;;;;;;6365006;28;20300;-70
2023/08/25 08:44:54;;;;;;;3.95;3.13;;;;;;;;;;6346207;28;20297;-69
2023/08/25 08:47:58;;;;;;;28.48;6.03;;;;;;;;;;6364954;28;20569;-71
2023/08/25 08:51:02;;;;;;;57.03;8.57;;;;;;;;;;6364251;28;20300;-71
2023/08/25 08:54:08;;;;;;;18.42;4.65;;;;;;;;;;6364168;28;20289;-70
2023/08/25 08:57:14;;;;;;;26.85;5.05;;;;;;;;;;6364688;28;20325;-71
2023/08/25 09:00:19;;;;;;;19.90;5.05;;;;;;;;;;6364193;28;20297;-70
2023/08/25 09:03:25;;;;;;;7.78;3.78;;;;;;;;;;6363455;28;20584;-70
2023/08/25 09:06:31;;;;;;;4.10;3.30;;;;;;;;;;6364908;28;20303;-70
2023/08/25 09:09:38;;;;;;;9.35;3.33;;;;;;;;;;6364772;28;20288;-70
2023/08/25 09:12:41;;;;;;;6.93;3.30;;;;;;;;;;6357896;28;20293;-70
2023/08/25 09:15:49;;;;;;;3.65;3.10;;;;;;;;;;6363952;28;20297;-70
2023/08/25 09:18:53;;;;;;;3.95;3.42;;;;;;;;;;6363612;28;20284;-71
2023/08/25 09:21:57;;;;;;;3.63;3.30;;;;;;;;;;6363968;28;20565;-69
2023/08/25 09:25:02;;;;;;;5.65;2.88;;;;;;;;;;6363431;28;20483;-70
2023/08/25 09:28:06;;;;;;;3.47;3.20;;;;;;;;;;6364097;28;20293;-69
2023/08/25 09:31:20;;;;;;;3.47;3.15;;;;;;;;;;6363183;28;20296;-71
2023/08/25 09:34:26;;;;;;;3.72;3.53;;;;;;;;;;6363560;28;20296;-69
2023/08/25 09:37:40;;;;;;;4.20;3.15;;;;;;;;;;6362928;28;20296;-69
2023/08/25 09:40:47;;;;;;;7.53;3.03;;;;;;;;;;6363166;28;20285;-68
2023/08/25 09:43:51;;;;;;;5.70;3.38;;;;;;;;;;6362853;28;20457;-70
2023/08/25 09:46:55;;;;;;;3.88;3.10;;;;;;;;;;6363569;28;20585;-70
2023/08/25 09:49:59;;;;;;;3.03;2.83;;;;;;;;;;6363247;28;20292;-68
2023/08/25 09:53:05;;;;;;;8.07;3.20;;;;;;;;;;6362375;28;20257;-69
2023/08/25 09:56:10;;;;;;;3.03;2.70;;;;;;;;;;6344009;28;20324;-70
2023/08/25 09:59:15;;;;;;;3.83;3.10;;;;;;;;;;6362935;28;20305;-70
2023/08/25 10:02:19;;;;;;;4.97;3.10;;;;;;;;;;6364320;28;20280;-69
2023/08/25 10:05:23;;;;;;;4.50;2.92;;;;;;;;;;6343725;28;20396;-70
2023/08/25 10:08:27;;;;;;;6.05;3.08;;;;;;;;;;6362506;28;20297;-70
2023/08/25 10:11:37;;;;;;;6.18;3.08;;;;;;;;;;6356221;28;20293;-69
2023/08/25 10:14:41;;;;;;;9.80;3.35;;;;;;;;;;6362282;28;20480;-69
2023/08/25 10:17:46;;;;;;;2.75;2.65;;;;;;;;;;6362604;28;20288;-70
2023/08/25 10:20:50;;;;;;;2.72;2.63;;;;;;;;;;6362307;28;20317;-69
2023/08/25 10:23:55;;;;;;;3.38;3.10;;;;;;;;;;6361377;28;20292;-69
2023/08/25 10:27:01;;;;;;;3.42;3.33;;;;;;;;;;6362268;28;20293;-70
2023/08/25 10:30:07;;;;;;;8.63;3.10;;;;;;;;;;6343360;28;20289;-70
2023/08/25 10:33:11;;;;;;;4.13;3.60;;;;;;;;;;6361975;28;20462;-69
2023/08/25 10:36:16;;;;;;;3.63;3.40;;;;;;;;;;6361482;28;20447;-69
2023/08/25 10:39:20;;;;;;;3.28;3.05;;;;;;;;;;6361313;28;20285;-69
2023/08/25 10:42:28;;;;;;;3.42;3.10;;;;;;;;;;6361988;28;20297;-69
2023/08/25 10:45:35;;;;;;;3.25;3.15;;;;;;;;;;6361175;28;20554;-69
2023/08/25 10:48:40;;;;;;;4.68;3.30;;;;;;;;;;6360976;28;20297;-69
2023/08/25 10:51:44;;;;;;;3.40;3.10;;;;;;;;;;6361068;28;20301;-70
2023/08/25 10:54:48;;;;;;;3.65;3.40;;;;;;;;;;6361197;28;20297;-69
2023/08/25 10:57:54;;;;;;;3.63;3.33;;;;;;;;;;6361609;28;20296;-70
2023/08/25 11:01:02;;;;;;;3.97;3.15;;;;;;;;;;6361268;28;20292;-69
2023/08/25 11:04:07;;;;;;;5.90;3.30;;;;;;;;;;6360149;28;20596;-69
2023/08/25 11:07:42;;;;;;;3.83;3.42;;;;;;;;;;6361246;28;20525;-68
2023/08/25 11:10:47;;;;;;;3.70;3.40;;;;;;;;;;6361061;28;20300;-70
2023/08/25 11:13:53;;;;;;;3.53;3.30;;;;;;;;;;6360881;28;20585;-70
2023/08/25 11:16:57;;;;;;;3.08;2.97;;;;;;;;;;6361420;28;20479;-73
2023/08/25 11:20:01;;;;;;;4.65;2.88;;;;;;;;;;6359431;28;20296;-70
2023/08/25 11:23:05;;;;;;;3.75;2.75;;;;;;;;;;6360961;28;20261;-68
2023/08/25 11:26:23;;;;;;;2.92;2.72;;;;;;;;;;6360092;28;20462;-69
2023/08/25 11:29:28;;;;;;;2.97;2.72;;;;;;;;;;6361329;28;20472;-69
2023/08/25 11:32:33;;;;;;;2.92;2.72;;;;;;;;;;6361027;28;20301;-69
2023/08/25 11:35:36;;;;;;;2.72;2.70;;;;;;;;;;6360742;28;20288;-69
2023/08/25 11:38:40;;;;;;;4.25;2.72;;;;;;;;;;6360135;28;20293;-69
2023/08/25 11:41:46;;;;;;;3.42;2.45;;;;;;;;;;6360388;28;20479;-69
2023/08/25 11:44:52;;;;;;;2.53;2.08;;;;;;;;;;6359940;28;20296;-69
2023/08/25 11:47:56;;;;;;;4.05;2.65;;;;;;;;;;6360596;28;20304;-70
2023/08/25 11:51:01;;;;;;;2.60;2.50;;;;;;;;;;6360200;28;20298;-69
2023/08/25 11:54:05;;;;;;;9.52;3.60;;;;;;;;;;6360331;28;20451;-69
2023/08/25 11:57:09;;;;;;;3.25;2.47;;;;;;;;;;6341886;28;20288;-69
2023/08/25 12:00:16;;;;;;;5.25;2.88;;;;;;;;;;6359786;28;20297;-69
2023/08/25 12:03:22;;;;;;;2.60;2.42;;;;;;;;;;6359733;28;20305;-70
2023/08/25 12:06:26;;;;;;;3.13;2.92;;;;;;;;;;6359658;28;20289;-70
2023/08/25 12:09:30;;;;;;;2.78;2.58;;;;;;;;;;6359725;28;20372;-69
2023/08/25 12:12:37;;;;;;;2.53;2.33;;;;;;;;;;6339843;28;20297;-69
2023/08/25 12:15:45;;;;;;;3.03;2.83;;;;;;;;;;6334415;28;20305;-69
2023/08/25 12:18:51;;;;;;;4.65;2.60;;;;;;;;;;6315889;28;20289;-69
2023/08/25 12:21:57;;;;;;;4.28;2.40;;;;;;;;;;6316464;28;20289;-70
2023/08/25 12:25:01;;;;;;;2.75;2.55;;;;;;;;;;6334832;28;20297;-68
2023/08/25 12:28:05;;;;;;;3.05;2.80;;;;;;;;;;6336868;28;20414;-70
2023/08/25 12:31:10;;;;;;;3.45;2.42;;;;;;;;;;6337024;28;20298;-70
2023/08/25 12:34:14;;;;;;;2.65;2.35;;;;;;;;;;6336842;28;20285;-70
2023/08/25 12:37:18;;;;;;;3.22;2.90;;;;;;;;;;6337442;28;20298;-69
2023/08/25 12:40:22;;;;;;;5.88;2.53;;;;;;;;;;6336348;28;20335;-70
2023/08/25 12:43:26;;;;;;;4.00;2.47;;;;;;;;;;6336249;28;20297;-70
2023/08/25 12:46:32;;;;;;;2.78;2.47;;;;;;;;;;6336915;28;20289;-70
2023/08/25 12:49:36;;;;;;;5.00;2.83;;;;;;;;;;6336529;28;20293;-70
2023/08/25 12:52:39;;;;;;;2.55;2.47;;;;;;;;;;6336719;28;20305;-71
2023/08/25 12:55:44;;;;;;;3.83;2.55;;;;;;;;;;6336226;28;20301;-69
2023/08/25 12:58:52;;;;;;;2.60;2.50;;;;;;;;;;6336061;28;20289;-70
2023/08/25 13:01:57;;;;;;;4.82;2.38;;;;;;;;;;6336276;28;20313;-69
2023/08/25 13:05:01;;;;;;;2.60;2.40;;;;;;;;;;6334383;28;20470;-70
2023/08/25 13:08:05;;;;;;;3.25;2.80;;;;;;;;;;6334520;28;20318;-69
2023/08/25 13:11:09;;;;;;;2.58;2.10;;;;;;;;;;6340085;28;20289;-69
2023/08/25 13:14:13;;;;;;;4.40;2.55;;;;;;;;;;6337509;28;20290;-69
2023/08/25 13:17:18;;;;;;;2.75;2.50;;;;;;;;;;6338614;28;20238;-69
2023/08/25 13:20:22;;;;;;;2.92;2.55;;;;;;;;;;6338252;28;20309;-70
2023/08/25 13:23:26;;;;;;;2.60;2.40;;;;;;;;;;6337925;28;20293;-69
2023/08/25 13:26:47;;;;;;;2.67;2.45;;;;;;;;;;6338715;28;20293;-70
2023/08/25 13:29:51;;;;;;;2.53;2.30;;;;;;;;;;6319592;28;20533;-69
2023/08/25 13:32:56;;;;;;;2.80;2.20;;;;;;;;;;6338396;28;20297;-70
2023/08/25 13:36:00;;;;;;;2.35;2.25;;;;;;;;;;6337793;28;20293;-69
2023/08/25 13:39:04;;;;;;;2.75;2.58;;;;;;;;;;6337833;28;20281;-70
2023/08/25 13:42:08;;;;;;;2.45;2.25;;;;;;;;;;6337934;28;20301;-70
2023/08/25 13:45:12;;;;;;;3.10;2.38;;;;;;;;;;6318462;28;20457;-69
2023/08/25 13:48:17;;;;;;;3.20;2.50;;;;;;;;;;6319163;28;20507;-69
2023/08/25 13:51:21;;;;;;;5.50;2.30;;;;;;;;;;6336841;28;20289;-70
2023/08/25 13:54:25;;;;;;;3.65;2.60;;;;;;;;;;6337132;28;20360;-69
2023/08/25 13:57:30;;;;;;;2.75;2.55;;;;;;;;;;6337513;28;20297;-69
2023/08/25 14:00:35;;;;;;;3.97;2.58;;;;;;;;;;6337123;28;20339;-69
2023/08/25 14:03:40;;;;;;;2.10;2.00;;;;;;;;;;6336102;28;20320;-69
2023/08/25 14:06:44;;;;;;;3.08;2.47;;;;;;;;;;6337386;28;20285;-69
2023/08/25 14:09:48;;;;;;;2.97;2.40;;;;;;;;;;6318058;28;20292;-70
2023/08/25 14:12:52;;;;;;;4.90;2.60;;;;;;;;;;6343868;28;20293;-69
2023/08/25 14:15:55;;;;;;;2.67;2.38;;;;;;;;;;6336694;28;20305;-70
2023/08/25 14:19:01;;;;;;;5.60;2.50;;;;;;;;;;6337840;28;20301;-70
2023/08/25 14:22:05;;;;;;;2.25;2.13;;;;;;;;;;6337428;28;20337;-69
2023/08/25 14:25:09;;;;;;;2.42;2.30;;;;;;;;;;6335076;28;20301;-69
2023/08/25 14:28:13;;;;;;;2.25;2.15;;;;;;;;;;6337129;28;20305;-69
2023/08/25 14:31:17;;;;;;;2.83;2.53;;;;;;;;;;6336352;28;20310;-68
2023/08/25 14:34:22;;;;;;;2.70;2.50;;;;;;;;;;6336408;28;20297;-69
2023/08/25 14:37:26;;;;;;;2.92;2.42;;;;;;;;;;6336543;28;20294;-70
2023/08/25 14:40:30;;;;;;;2.10;2.00;;;;;;;;;;6336345;28;20293;-69
2023/08/25 14:43:34;;;;;;;2.60;2.40;;;;;;;;;;6335723;28;20297;-69
2023/08/25 14:46:39;;;;;;;3.63;2.40;;;;;;;;;;6336549;28;20463;-69
2023/08/25 14:49:45;;;;;;;2.53;2.33;;;;;;;;;;6336166;28;20297;-69
2023/08/25 14:52:48;;;;;;;3.10;2.80;;;;;;;;;;6336673;28;20301;-69
2023/08/25 14:55:52;;;;;;;2.78;2.38;;;;;;;;;;6335467;28;20298;-69
2023/08/25 14:58:56;;;;;;;3.17;2.72;;;;;;;;;;6335792;28;20478;-72
2023/08/25 15:02:00;;;;;;;2.30;2.10;;;;;;;;;;6336417;28;20293;-69
2023/08/25 15:05:06;;;;;;;3.60;2.65;;;;;;;;;;6334371;28;20293;-69
2023/08/25 15:08:09;;;;;;;2.15;2.05;;;;;;;;;;6336475;28;20234;-68
2023/08/25 15:11:13;;;;;;;3.60;2.67;;;;;;;;;;6341608;28;20472;-69
2023/08/25 15:14:17;;;;;;;2.65;2.55;;;;;;;;;;6335446;28;20291;-69
2023/08/25 15:17:21;;;;;;;3.08;2.40;;;;;;;;;;6335798;28;20294;-69
2023/08/25 15:20:26;;;;;;;2.50;2.40;;;;;;;;;;6335321;28;20290;-69
2023/08/25 15:23:30;;;;;;;6.03;2.45;;;;;;;;;;6334555;28;20301;-69
2023/08/25 15:26:34;;;;;;;3.03;2.72;;;;;;;;;;6335441;28;20301;-69
2023/08/25 15:29:38;;;;;;;3.10;2.80;;;;;;;;;;6335016;28;20290;-69
2023/08/25 15:32:54;;;;;;;3.47;2.83;;;;;;;;;;6335561;28;20290;-73
2023/08/25 15:35:59;;;;;;;3.83;2.90;;;;;;;;;;6334143;28;20301;-69
2023/08/25 15:39:04;;;;;;;5.15;2.58;;;;;;;;;;6328228;28;20389;-67
2023/08/25 15:42:08;;;;;;;2.97;2.70;;;;;;;;;;6336573;28;20289;-69
2023/08/25 15:45:12;;;;;;;2.67;2.47;;;;;;;;;;6335653;28;20285;-69
2023/08/25 15:48:16;;;;;;;2.75;2.65;;;;;;;;;;6335053;28;20381;-68
2023/08/25 15:51:21;;;;;;;4.60;2.88;;;;;;;;;;6334287;28;20313;-70
2023/08/25 15:54:25;;;;;;;2.95;2.85;;;;;;;;;;6334388;28;20318;-70
2023/08/25 15:57:29;;;;;;;6.93;2.90;;;;;;;;;;6334879;28;20547;-69
2023/08/25 16:00:46;;;;;;;3.80;3.50;;;;;;;;;;6334439;28;20590;-69
2023/08/25 16:03:50;;;;;;;4.68;3.08;;;;;;;;;;6325334;28;20400;-67
2023/08/25 16:06:55;;;;;;;3.80;3.53;;;;;;;;;;6309805;28;20473;-72
2023/08/25 16:09:59;;;;;;;4.32;3.78;;;;;;;;;;6309164;28;20310;-69
2023/08/25 16:13:03;;;;;;;6.75;3.60;;;;;;;;;;6315912;28;20294;-69
2023/08/25 16:16:07;;;;;;;3.38;3.28;;;;;;;;;;6308939;28;20301;-69
2023/08/25 16:19:11;;;;;;;3.70;3.45;;;;;;;;;;6308477;28;20302;-71
2023/08/25 16:22:19;;;;;;;5.10;3.80;;;;;;;;;;6309514;28;20294;-72
2023/08/25 16:25:23;;;;;;;4.22;3.72;;;;;;;;;;6308773;28;20438;-72
2023/08/25 16:28:28;;;;;;;4.00;3.72;;;;;;;;;;6308240;28;20294;-70
2023/08/25 16:31:32;;;;;;;4.00;3.80;;;;;;;;;;6309328;28;20302;-72
2023/08/25 16:34:35;;;;;;;5.05;4.10;;;;;;;;;;6309281;28;20295;-72
2023/08/25 16:37:41;;;;;;;9.27;4.18;;;;;;;;;;6309270;28;20302;-81
2023/08/25 16:40:45;;;;;;;10.30;4.32;;;;;;;;;;6309103;28;20290;-74
2023/08/25 16:43:49;;;;;;;3.88;3.67;;;;;;;;;;6308589;28;20289;-68
2023/08/25 16:46:53;;;;;;;6.93;3.85;;;;;;;;;;6309259;28;20302;-69
2023/08/25 16:49:57;;;;;;;4.45;3.58;;;;;;;;;;6313418;28;20289;-69
2023/08/25 16:53:07;;;;;;;3.15;2.90;;;;;;;;;;6313174;28;20282;-71
2023/08/25 16:56:11;;;;;;;3.50;3.22;;;;;;;;;;6313405;28;20294;-71
2023/08/25 16:59:15;;;;;;;4.82;3.58;;;;;;;;;;6313213;28;20363;-70
2023/08/25 17:02:19;;;;;;;3.35;3.13;;;;;;;;;;6313453;28;20255;-70
2023/08/25 17:05:22;;;;;;;6.45;3.78;;;;;;;;;;6334667;28;20297;-71
2023/08/25 17:08:29;;;;;;;3.92;3.25;;;;;;;;;;6338498;28;20298;-70
2023/08/25 17:11:34;;;;;;;6.78;3.90;;;;;;;;;;6346521;28;20309;-70
2023/08/25 17:14:38;;;;;;;4.43;3.60;;;;;;;;;;6319932;28;20290;-71
2023/08/25 17:17:42;;;;;;;4.45;3.38;;;;;;;;;;6338365;28;20295;-71
2023/08/25 17:20:46;;;;;;;4.03;3.72;;;;;;;;;;6337830;28;20365;-69
2023/08/25 17:23:52;;;;;;;3.42;3.28;;;;;;;;;;6336850;28;20300;-72
2023/08/25 17:26:55;;;;;;;7.10;4.20;;;;;;;;;;6337132;28;20293;-73
2023/08/25 17:29:59;;;;;;;3.83;3.60;;;;;;;;;;6337998;28;20289;-70
2023/08/25 17:33:04;;;;;;;4.50;4.00;;;;;;;;;;6338504;28;20301;-70
2023/08/25 17:36:10;;;;;;;3.55;3.45;;;;;;;;;;6319424;28;20294;-71
2023/08/25 17:39:15;;;;;;;4.50;4.07;;;;;;;;;;6337621;28;20547;-71
2023/08/25 17:42:20;;;;;;;6.38;3.95;;;;;;;;;;6338326;28;20286;-70
2023/08/25 17:45:23;;;;;;;4.13;3.83;;;;;;;;;;6337813;28;20432;-72
2023/08/25 17:48:27;;;;;;;5.03;3.83;;;;;;;;;;6319221;28;20289;-73
2023/08/25 17:51:31;;;;;;;4.50;4.10;;;;;;;;;;6338290;28;20305;-72
2023/08/25 17:54:38;;;;;;;5.22;4.53;;;;;;;;;;6337365;28;20293;-70
2023/08/25 17:57:43;;;;;;;3.97;3.67;;;;;;;;;;6337758;28;20301;-69
2023/08/25 18:00:47;;;;;;;4.40;4.00;;;;;;;;;;6336926;28;20438;-72
2023/08/25 18:03:50;;;;;;;5.97;3.55;;;;;;;;;;6328136;28;20294;-72
2023/08/25 18:06:54;;;;;;;3.90;3.50;;;;;;;;;;6312731;28;20322;-70
2023/08/25 18:09:59;;;;;;;3.97;3.58;;;;;;;;;;6311794;28;20298;-72
2023/08/25 18:13:04;;;;;;;3.88;3.58;;;;;;;;;;6318808;28;20290;-72
2023/08/25 18:16:07;;;;;;;5.10;3.72;;;;;;;;;;6311663;28;20290;-71
2023/08/25 18:19:11;;;;;;;3.65;3.35;;;;;;;;;;6311729;28;20598;-72
2023/08/25 18:22:15;;;;;;;3.63;3.42;;;;;;;;;;6311777;28;20535;-72
2023/08/25 18:25:20;;;;;;;3.35;3.25;;;;;;;;;;6311288;28;20331;-71